Nederlandse vliegveldverwachtingen (TAF)

Luchtvaartmeteorologische informatie voor operationeel gebruik en vluchtvoorbereiding is beschikbaar op www.luchtvaartmeteo.nl.

ZCZC
FT122300 EHLE     LELYSTAD/LELYSTAD   NLD   -3 m.
TAF EHLE 122311Z 1300/1406 06005KT CAVOK
    PROB30 1302/1305 2500 BR MIFG
    PROB30 TEMPO 1318/1406 6000 SHRA RA SCT025CB
    PROB30 TEMPO 1400/1406 2000 BCFG=

ZCZC
FT122300 EHAM     AMSTERDAM/SCHIPHOL   NLD   -3 m.
TAF EHAM 122312Z 1300/1406 06005KT CAVOK
    PROB30 1301/1305 6000 MIFG
    PROB40 TEMPO 1317/1406 6000 SHRA RA SCT025CB
    PROB30 TEMPO 1400/1406 2000 BCFG=

ZCZC
FT122300 EHRD     ROTTERDAM/THE HAGUE AIRPORT   NLD   -5 m.
TAF EHRD 122311Z 1300/1406 06005KT CAVOK
    PROB30 1300/1305 2500 BR MIFG
    PROB40 TEMPO 1312/1324 6000 SHRA RA SCT025CB
    BECMG 1322/1401 4000 BR MIFG
    PROB30 1400/1405 0800 BCFG=

ZCZC
FT122300 EHGG     GRONINGEN/EELDE   NLD   5 m.
TAF EHGG 122316Z 1300/1406 07004KT 6000 FEW040
    BECMG 1300/1302 4000 BR MIFG
    PROB30 1300/1306 0400 FG VV001
    BECMG 1306/1308 CAVOK
    BECMG 1312/1315 02010KT
    BECMG 1321/1324 03006KT 6000 BKN006
    PROB30 1321/1404 4000 BR BKN004=

ZCZC
FT122300 EHBK     MAASTRICHT/MAASTRICHT-AACHEN   NLD   114 m.
TAF EHBK 122316Z 1300/1406 12004KT CAVOK
    TEMPO 1311/1318 6000 SHRA RA SCT020CB BKN030
    PROB30 1402/1406 4000 BR=

ZCZC
FT122300 EHEH     EINDHOVEN/EINDHOVEN   NLD   22 m.
TAF EHEH 122314Z 1300/1406 08002KT CAVOK
    BECMG 1300/1302 3500 BR MIFG
    PROB40 1300/1306 0500 FG BKN000
    BECMG 1306/1308 9999 NSW
    BECMG 1310/1313 22006KT
    TEMPO 1310/1318 4500 -SHRA SCT030CB
    PROB40 TEMPO 1314/1318 23010G20KT 3000 TSRA SCT015 SCT025CB
    TEMPO 1315/1323 VRB02KT
    PROB40 1400/1406 0500 FG BKN001=

ZCZC
FC130100 EHKD     DE KOOY/DE KOOY   NLD   1 m.
TAF EHKD 130027Z 1301/1313 08005KT CAVOK=

ZCZC
FC130100 EHGR     GILZE-RIJEN/GILZE-RIJEN   NLD   14 m.
TAF EHGR 130100Z NIL=

ZCZC
FC130100 EHLW     LEEUWARDEN/LEEUWARDEN   NLD   1 m.
TAF EHLW 130040Z 1301/1313 07005KT 7000 NSC
    BECMG 1301/1303 3500 BR MIFG
    PROB40 1301/1306 0500 FG BKN001
    BECMG 1306/1308 9999 NSW=

ZCZC
FC130100 EHVK     VOLKEL/VOLKEL   NLD   21 m.
TAF EHVK 130040Z 1301/1313 08002KT CAVOK
    BECMG 1301/1303 3500 BR MIFG
    PROB40 1300/1306 0500 FG BKN000
    BECMG 1306/1308 9999 NSW
    BECMG 1310/1313 22006KT
    TEMPO 1310/1313 4500 -SHRA SCT030CB=

ZCZC
FC130100 EHWO     WOENSDRECHT/WOENSDRECHT   NLD   19 m.
TAF EHWO 130100Z NIL=

13/05/2021 03.15 uur LT